Time;durP1;ratioP1;P1;durP2;ratioP2;P2;SDS_P1;SDS_P2;PMS_P1;PMS_P2;Temp;Humidity;BMP_temperature;BMP_pressure;BME280_temperature;BME280_humidity;BME280_pressure;Samples;Min_cycle;Max_cycle;Signal;HPM_P1;HPM_P2
2023/02/24 00:01:43;;;;;;;;;;;;;;;8.13;100.00;100899.00;5027903;28;20056;-71
2023/02/24 00:04:12;;;;;;;;;;;;;;;8.14;100.00;100898.19;5028390;28;19923;-71
2023/02/24 00:06:42;;;;;;;;;;;;;;;8.03;100.00;100907.03;5028153;28;19917;-71
2023/02/24 00:09:18;;;;;;;;;;;;;;;8.02;100.00;100895.84;5028377;28;19917;-68
2023/02/24 00:11:45;;;;;;;;;;;;;;;7.94;100.00;100898.00;5031830;28;19924;-72
2023/02/24 00:14:14;;;;;;;;;;;;;;;7.88;100.00;100897.66;5049777;28;19939;-73
2023/02/24 00:16:40;;;;;;;;;;;;;;;7.79;100.00;100892.03;5061624;28;20330;-68
2023/02/24 00:19:09;;;;;;;;;;;;;;;7.77;100.00;100894.50;5050874;28;19917;-72
2023/02/24 00:21:34;;;;;;;;;;;;;;;7.71;100.00;100890.72;5063177;28;20333;-69
2023/02/24 00:23:59;;;;;;;;;;;;;;;7.65;100.00;100888.69;5063497;28;19916;-74
2023/02/24 00:26:26;;;;;;;;;;;;;;;7.67;100.00;100879.38;5051253;28;20402;-69
2023/02/24 00:28:51;;;;;;;;;;;;;;;7.74;100.00;100888.31;5051139;28;19917;-70
2023/02/24 00:31:18;;;;;;;;;;;;;;;7.74;100.00;100878.03;5051456;28;19974;-68
2023/02/24 00:33:43;;;;;;;;;;;;;;;7.73;100.00;100881.41;5050168;28;20283;-71
2023/02/24 00:36:22;;;;;;;;;;;;;;;7.70;100.00;100874.41;5049998;28;19969;-72
2023/02/24 00:38:48;;;;;;;;;;;;;;;7.71;100.00;100870.16;5050434;28;19917;-68
2023/02/24 00:41:14;;;;;;;;;;;;;;;7.75;100.00;100864.38;5050482;28;20026;-68
2023/02/24 00:43:45;;;;;;;;;;;;;;;7.73;100.00;100861.72;5050250;28;19928;-74
2023/02/24 00:46:11;;;;;;;;;;;;;;;7.81;100.00;100862.13;5050567;28;19921;-69
2023/02/24 00:48:39;;;;;;;;;;;;;;;7.79;100.00;100863.75;5051074;28;20019;-71
2023/02/24 00:51:06;;;;;;;;;;;;;;;7.83;100.00;100864.81;5050819;28;19923;-69
2023/02/24 00:53:32;;;;;;;;;;;;;;;7.84;100.00;100854.59;5050877;28;19951;-70
2023/02/24 00:55:58;;;;;;;;;;;;;;;7.83;100.00;100854.53;5051041;28;20024;-68
2023/02/24 00:58:28;;;;;;;;;;;;;;;7.77;100.00;100858.50;5050728;28;19917;-74
2023/02/24 01:00:54;;;;;;;;;;;;;;;7.67;100.00;100861.38;5050877;28;19916;-69
2023/02/24 01:03:20;;;;;;;;;;;;;;;7.56;100.00;100845.41;5050707;28;19917;-69
2023/02/24 01:05:45;;;;;;;;;;;;;;;7.47;100.00;100851.72;5049124;28;19927;-70
2023/02/24 01:08:12;;;;;;;;;;;;;;;7.41;100.00;100844.53;5049944;28;19917;-70
2023/02/24 01:10:38;;;;;;;;;;;;;;;7.27;100.00;100844.63;5049839;28;19931;-71
2023/02/24 01:13:03;;;;;;;;;;;;;;;7.31;100.00;100844.81;5006471;28;20004;-71
2023/02/24 01:15:28;;;;;;;;;;;;;;;7.29;100.00;100837.91;5050001;28;19932;-71
2023/02/24 01:17:54;;;;;;;;;;;;;;;7.32;100.00;100838.91;5050038;28;19925;-69
2023/02/24 01:20:19;;;;;;;;;;;;;;;7.33;100.00;100832.94;5047455;28;19967;-70
2023/02/24 01:22:47;;;;;;;;;;;;;;;7.31;100.00;100835.41;5049648;28;19923;-71
2023/02/24 01:25:12;;;;;;;;;;;;;;;7.28;100.00;100838.69;5033748;28;19967;-71
2023/02/24 01:27:39;;;;;;;;;;;;;;;7.29;100.00;100831.91;5053839;28;19924;-69
2023/02/24 01:30:05;;;;;;;;;;;;;;;7.23;100.00;100835.00;5053984;28;19920;-72
2023/02/24 01:32:30;;;;;;;;;;;;;;;7.22;100.00;100834.91;5054073;28;20337;-70
2023/02/24 01:34:56;;;;;;;;;;;;;;;7.21;100.00;100828.88;5053866;28;19974;-70
2023/02/24 01:37:21;;;;;;;;;;;;;;;7.15;100.00;100827.66;5053839;28;19916;-70
2023/02/24 01:39:46;;;;;;;;;;;;;;;7.15;100.00;100825.09;5054116;28;20373;-71
2023/02/24 01:42:15;;;;;;;;;;;;;;;7.18;100.00;100827.81;5053781;28;20507;-68
2023/02/24 01:44:42;;;;;;;;;;;;;;;7.19;100.00;100827.94;5052412;28;19936;-68
2023/02/24 01:47:08;;;;;;;;;;;;;;;7.11;100.00;100819.78;5034414;28;19974;-69
2023/02/24 01:49:37;;;;;;;;;;;;;;;7.16;100.00;100822.59;5034194;28;19977;-70
2023/02/24 01:52:08;;;;;;;;;;;;;;;7.22;100.00;100820.38;5044052;28;19921;-71
2023/02/24 01:54:45;;;;;;;;;;;;;;;7.21;100.00;100823.75;5050855;28;19928;-71
2023/02/24 01:57:15;;;;;;;;;;;;;;;7.22;100.00;100820.38;5051574;28;19932;-68
2023/02/24 01:59:40;;;;;;;;;;;;;;;7.21;100.00;100820.31;5052521;28;19948;-71
2023/02/24 02:02:06;;;;;;;;;;;;;;;7.20;100.00;100809.16;5052750;28;19920;-69
2023/02/24 02:04:44;;;;;;;;;;;;;;;7.16;100.00;100817.47;5053278;28;20290;-68
2023/02/24 02:07:14;;;;;;;;;;;;;;;7.07;100.00;100814.41;5050761;28;19924;-71
2023/02/24 02:09:40;;;;;;;;;;;;;;;7.08;100.00;100811.91;5053288;28;19932;-71
2023/02/24 02:12:06;;;;;;;;;;;;;;;7.04;100.00;100806.50;5052758;28;19928;-71
2023/02/24 02:14:31;;;;;;;;;;;;;;;7.00;100.00;100812.28;5052971;28;19951;-68
2023/02/24 02:17:06;;;;;;;;;;;;;;;6.97;100.00;100813.00;5053114;28;19974;-68
2023/02/24 02:19:54;;;;;;;;;;;;;;;6.93;100.00;100809.34;5050731;28;19970;-70
2023/02/24 02:22:27;;;;;;;;;;;;;;;6.94;100.00;100802.53;5049025;28;19924;-69
2023/02/24 02:25:11;;;;;;;;;;;;;;;7.00;100.00;100802.88;5050867;28;19955;-68
2023/02/24 02:27:39;;;;;;;;;;;;;;;7.00;100.00;100810.56;5051128;28;19921;-73
2023/02/24 02:30:14;;;;;;;;;;;;;;;6.97;100.00;100810.41;5052794;28;19917;-69
2023/02/24 02:32:54;;;;;;;;;;;;;;;6.91;100.00;100812.63;5052681;28;19917;-72
2023/02/24 02:35:45;;;;;;;;;;;;;;;6.90;100.00;100805.72;5051204;28;19948;-68
2023/02/24 02:38:24;;;;;;;;;;;;;;;6.90;100.00;100806.63;5045736;28;19979;-73
2023/02/24 02:41:13;;;;;;;;;;;;;;;6.84;100.00;100811.41;5038542;28;19925;-71
2023/02/24 02:43:41;;;;;;;;;;;;;;;6.75;100.00;100808.28;4984155;28;19918;-69
2023/02/24 02:46:13;;;;;;;;;;;;;;;6.65;100.00;100801.75;4983987;28;19965;-71
2023/02/24 02:48:46;;;;;;;;;;;;;;;6.74;100.00;100810.00;4983392;28;19932;-74
2023/02/24 02:51:25;;;;;;;;;;;;;;;6.67;100.00;100804.38;4984076;28;19960;-73
2023/02/24 02:53:53;;;;;;;;;;;;;;;6.79;100.00;100795.75;4985541;28;19922;-72
2023/02/24 02:56:23;;;;;;;;;;;;;;;6.78;100.00;100803.34;4989801;28;19930;-71
2023/02/24 02:58:54;;;;;;;;;;;;;;;6.84;100.00;100797.69;4989918;28;19961;-74
2023/02/24 03:01:21;;;;;;;;;;;;;;;6.94;100.00;100803.44;4989810;28;19921;-71
2023/02/24 03:03:49;;;;;;;;;;;;;;;7.02;100.00;100806.44;4989955;28;19953;-70
2023/02/24 03:06:18;;;;;;;;;;;;;;;7.14;100.00;100803.69;4990442;28;19925;-71
2023/02/24 03:08:48;;;;;;;;;;;;;;;7.17;100.00;100806.41;4990213;28;19918;-70
2023/02/24 03:11:15;;;;;;;;;;;;;;;7.23;100.00;100803.31;4990375;28;19922;-72
2023/02/24 03:13:41;;;;;;;;;;;;;;;7.28;100.00;100810.44;4990031;28;19914;-72
2023/02/24 03:16:09;;;;;;;;;;;;;;;7.33;100.00;100802.09;4989617;28;19925;-72
2023/02/24 03:18:36;;;;;;;;;;;;;;;7.30;100.00;100797.69;4989446;28;20480;-73
2023/02/24 03:21:06;;;;;;;;;;;;;;;7.14;100.00;100806.25;5017259;28;20378;-68
2023/02/24 03:23:35;;;;;;;;;;;;;;;7.05;100.00;100801.47;5031965;28;20492;-71
2023/02/24 03:26:06;;;;;;;;;;;;;;;7.02;100.00;100800.41;5031792;28;19960;-69
2023/02/24 03:28:36;;;;;;;;;;;;;;;7.07;100.00;100797.28;5032020;28;20023;-71
2023/02/24 03:31:09;;;;;;;;;;;;;;;7.03;100.00;100791.91;5031194;28;20354;-69
2023/02/24 03:33:39;;;;;;;;;;;;;;;6.99;100.00;100789.97;5031744;28;19917;-69
2023/02/24 03:36:05;;;;;;;;;;;;;;;6.99;100.00;100784.81;5031522;28;19939;-69
2023/02/24 03:38:32;;;;;;;;;;;;;;;6.90;100.00;100787.75;5031780;28;19925;-69
2023/02/24 03:40:58;;;;;;;;;;;;;;;6.91;100.00;100782.72;5031598;28;20009;-68
2023/02/24 03:43:26;;;;;;;;;;;;;;;6.94;100.00;100782.91;5031088;28;20004;-70
2023/02/24 03:45:52;;;;;;;;;;;;;;;6.95;100.00;100786.34;5031475;28;19949;-71
2023/02/24 03:48:17;;;;;;;;;;;;;;;6.91;100.00;100779.28;5030916;28;19953;-69
2023/02/24 03:50:43;;;;;;;;;;;;;;;6.90;100.00;100778.41;5030903;28;19917;-70
2023/02/24 03:53:15;;;;;;;;;;;;;;;6.83;100.00;100776.28;5031540;28;20314;-72
2023/02/24 03:55:46;;;;;;;;;;;;;;;6.70;100.00;100766.97;5030972;28;19917;-70
2023/02/24 03:58:20;;;;;;;;;;;;;;;6.84;100.00;100770.34;5030932;28;19917;-73
2023/02/24 04:01:04;;;;;;;;;;;;;;;6.86;100.00;100770.44;5031354;28;19917;-72
2023/02/24 04:03:29;;;;;;;;;;;;;;;6.91;100.00;100772.44;5031123;28;19976;-69
2023/02/24 04:06:13;;;;;;;;;;;;;;;7.01;100.00;100776.41;5031102;28;20355;-72
2023/02/24 04:08:44;;;;;;;;;;;;;;;7.06;100.00;100767.28;5030565;28;19967;-75
2023/02/24 04:11:24;;;;;;;;;;;;;;;7.07;100.00;100773.31;5046244;28;19917;-68
2023/02/24 04:13:51;;;;;;;;;;;;;;;7.10;100.00;100768.34;5031153;28;19971;-69
2023/02/24 04:16:26;;;;;;;;;;;;;;;7.08;100.00;100765.69;5037490;28;20402;-69
2023/02/24 04:18:53;;;;;;;;;;;;;;;7.03;100.00;100762.00;5040426;28;19924;-71
2023/02/24 04:21:21;;;;;;;;;;;;;;;7.11;100.00;100762.41;5032724;28;19935;-71
2023/02/24 04:23:47;;;;;;;;;;;;;;;7.08;100.00;100757.13;5051173;28;19924;-72
2023/02/24 04:26:14;;;;;;;;;;;;;;;7.12;100.00;100753.91;5050597;28;19924;-68
2023/02/24 04:28:41;;;;;;;;;;;;;;;7.15;100.00;100748.94;5050867;28;20000;-71
2023/02/24 04:31:09;;;;;;;;;;;;;;;7.08;100.00;100752.88;5050705;28;19931;-68
2023/02/24 04:33:37;;;;;;;;;;;;;;;7.08;100.00;100759.69;5050617;28;19924;-70
2023/02/24 04:36:03;;;;;;;;;;;;;;;7.00;100.00;100754.09;5050724;28;19966;-71
2023/02/24 04:38:29;;;;;;;;;;;;;;;6.89;100.00;100762.88;5050837;28;19923;-72
2023/02/24 04:40:54;;;;;;;;;;;;;;;6.88;100.00;100756.88;5050708;28;19921;-71
2023/02/24 04:43:19;;;;;;;;;;;;;;;6.88;100.00;100761.13;5050576;28;20302;-69
2023/02/24 04:45:45;;;;;;;;;;;;;;;6.88;100.00;100761.13;5050788;28;20306;-68
2023/02/24 04:48:13;;;;;;;;;;;;;;;6.92;100.00;100763.94;5050575;28;19917;-70
2023/02/24 04:50:40;;;;;;;;;;;;;;;6.97;100.00;100764.22;5050532;28;19952;-72
2023/02/24 04:53:08;;;;;;;;;;;;;;;7.03;100.00;100763.66;5050419;28;19921;-70
2023/02/24 04:55:39;;;;;;;;;;;;;;;6.84;100.00;100762.66;5050367;28;19917;-68
2023/02/24 04:58:05;;;;;;;;;;;;;;;6.73;100.00;100766.25;5050830;28;20012;-71
2023/02/24 05:00:34;;;;;;;;;;;;;;;6.64;100.00;100752.13;5054446;28;19924;-75
2023/02/24 05:03:00;;;;;;;;;;;;;;;6.66;100.00;100752.22;5054898;28;19946;-72
2023/02/24 05:05:26;;;;;;;;;;;;;;;6.69;100.00;100751.50;5054307;28;19978;-73
2023/02/24 05:07:55;;;;;;;;;;;;;;;6.70;100.00;100745.56;5054480;28;19917;-72
2023/02/24 05:10:26;;;;;;;;;;;;;;;6.75;100.00;100739.00;5054271;28;19921;-72
2023/02/24 05:12:52;;;;;;;;;;;;;;;6.76;100.00;100748.50;5053964;28;19921;-72
2023/02/24 05:15:17;;;;;;;;;;;;;;;6.78;100.00;100742.66;5051306;28;19931;-67
2023/02/24 05:17:43;;;;;;;;;;;;;;;6.85;100.00;100740.44;5056862;28;19921;-70
2023/02/24 05:22:52;;;;;;;;;;;;;;;6.98;100.00;100732.63;5060971;28;19932;-73
2023/02/24 05:25:18;;;;;;;;;;;;;;;7.07;100.00;100740.81;5071664;28;19916;-74
2023/02/24 05:27:44;;;;;;;;;;;;;;;7.12;100.00;100735.94;5054391;28;19979;-70
2023/02/24 05:30:10;;;;;;;;;;;;;;;7.22;100.00;100732.19;5054785;28;19921;-73
2023/02/24 05:32:35;;;;;;;;;;;;;;;7.23;100.00;100737.41;5054351;28;20349;-76
2023/02/24 05:35:01;;;;;;;;;;;;;;;7.22;100.00;100743.34;5054606;28;19966;-70
2023/02/24 05:37:27;;;;;;;;;;;;;;;7.29;100.00;100742.00;5054540;28;19913;-75
2023/02/24 05:39:56;;;;;;;;;;;;;;;7.33;100.00;100745.59;5054131;28;19970;-73
2023/02/24 05:42:21;;;;;;;;;;;;;;;7.38;100.00;100757.03;5054059;28;19917;-70
2023/02/24 05:44:46;;;;;;;;;;;;;;;7.45;100.00;100748.84;5053991;28;19977;-77
2023/02/24 05:47:16;;;;;;;;;;;;;;;7.50;100.00;100751.66;5054159;28;20363;-74
2023/02/24 05:49:42;;;;;;;;;;;;;;;7.53;100.00;100750.16;5054303;28;19964;-73
2023/02/24 05:52:08;;;;;;;;;;;;;;;7.57;100.00;100748.63;5053800;28;19916;-75
2023/02/24 05:54:36;;;;;;;;;;;;;;;7.56;100.00;100750.34;5054222;28;19974;-73
2023/02/24 05:57:03;;;;;;;;;;;;;;;7.61;100.00;100755.69;5053991;28;19920;-73
2023/02/24 05:59:31;;;;;;;;;;;;;;;7.65;100.00;100756.75;5053803;28;19920;-73
2023/02/24 06:01:59;;;;;;;;;;;;;;;7.70;100.00;100757.88;5054420;28;20413;-73
2023/02/24 06:04:38;;;;;;;;;;;;;;;7.67;100.00;100760.28;5053857;28;20009;-73
2023/02/24 06:07:17;;;;;;;;;;;;;;;7.66;100.00;100761.09;5054085;28;19923;-70
2023/02/24 06:09:43;;;;;;;;;;;;;;;7.69;100.00;100762.13;5053530;28;20309;-70
2023/02/24 06:12:09;;;;;;;;;;;;;;;7.73;100.00;100766.63;5053159;28;19917;-74
2023/02/24 06:14:34;;;;;;;;;;;;;;;7.79;100.00;100760.94;5053558;28;19977;-71
2023/02/24 06:17:02;;;;;;;;;;;;;;;7.87;100.00;100762.22;5053506;28;19920;-71
2023/02/24 06:19:30;;;;;;;;;;;;;;;7.92;100.00;100758.22;5053486;28;19917;-70
2023/02/24 06:21:56;;;;;;;;;;;;;;;8.01;100.00;100762.06;5053818;28;19921;-70
2023/02/24 06:24:21;;;;;;;;;;;;;;;7.99;100.00;100763.66;5053564;28;20378;-71
2023/02/24 06:26:49;;;;;;;;;;;;;;;7.98;100.00;100757.63;5053606;28;20007;-73
2023/02/24 06:29:15;;;;;;;;;;;;;;;7.92;100.00;100763.38;5053505;28;19924;-73
2023/02/24 06:31:41;;;;;;;;;;;;;;;8.00;100.00;100763.75;5053484;28;19920;-70
2023/02/24 06:34:09;;;;;;;;;;;;;;;7.94;100.00;100769.44;5053345;28;20311;-73
2023/02/24 06:36:35;;;;;;;;;;;;;;;7.85;100.00;100758.69;5035450;28;19921;-71
2023/02/24 06:39:01;;;;;;;;;;;;;;;7.93;100.00;100762.53;5053337;28;20062;-69
2023/02/24 06:41:28;;;;;;;;;;;;;;;8.03;100.00;100757.88;5053373;28;20019;-73
2023/02/24 06:43:53;;;;;;;;;;;;;;;7.97;100.00;100755.88;5053232;28;19917;-72
2023/02/24 06:46:19;;;;;;;;;;;;;;;7.97;100.00;100745.59;5053391;28;19917;-72
2023/02/24 06:48:46;;;;;;;;;;;;;;;8.00;100.00;100742.28;5053193;28;20387;-72
2023/02/24 06:51:14;;;;;;;;;;;;;;;8.00;100.00;100744.84;5053296;28;20505;-70
2023/02/24 06:53:42;;;;;;;;;;;;;;;8.00;100.00;100744.84;5053167;28;19924;-72
2023/02/24 06:56:14;;;;;;;;;;;;;;;8.10;100.00;100735.13;5018228;28;19921;-73
2023/02/24 06:58:43;;;;;;;;;;;;;;;8.32;100.00;100737.91;5053147;28;19921;-70
2023/02/24 07:01:10;;;;;;;;;;;;;;;8.45;100.00;100737.72;5053168;28;19927;-74
2023/02/24 07:03:39;;;;;;;;;;;;;;;8.57;100.00;100735.78;5052721;28;19916;-69
2023/02/24 07:06:19;;;;;;;;;;;;;;;8.69;100.00;100734.63;5052849;28;19923;-73
2023/02/24 07:08:45;;;;;;;;;;;;;;;8.75;100.00;100729.78;5052509;28;20365;-74
2023/02/24 07:11:12;;;;;;;;;;;;;;;8.68;100.00;100727.72;5052852;28;20011;-74
2023/02/24 07:13:39;;;;;;;;;;;;;;;8.57;100.00;100720.34;5052773;28;20340;-71
2023/02/24 07:16:06;;;;;;;;;;;;;;;8.27;100.00;100719.66;5052471;28;19929;-69
2023/02/24 07:18:34;;;;;;;;;;;;;;;8.20;100.00;100715.00;5052614;28;20007;-68
2023/02/24 07:21:03;;;;;;;;;;;;;;;8.14;100.00;100709.56;5052660;28;20015;-69
2023/02/24 07:23:30;;;;;;;;;;;;;;;8.31;100.00;100711.31;5051386;28;19927;-69
2023/02/24 07:25:57;;;;;;;;;;;;;;;8.53;100.00;100708.13;5052497;28;19916;-69
2023/02/24 07:28:24;;;;;;;;;;;;;;;8.63;100.00;100711.16;5052419;28;20375;-69
2023/02/24 07:30:51;;;;;;;;;;;;;;;8.87;100.00;100703.72;5052302;28;19920;-70
2023/02/24 07:33:18;;;;;;;;;;;;;;;9.03;100.00;100710.47;5052041;28;19916;-70
2023/02/24 07:35:49;;;;;;;;;;;;;;;9.12;100.00;100712.59;5052327;28;19924;-76
2023/02/24 07:38:16;;;;;;;;;;;;;;;8.99;100.00;100706.00;5052029;28;20391;-72
2023/02/24 07:40:42;;;;;;;;;;;;;;;9.10;100.00;100693.63;5052028;28;19924;-70
2023/02/24 07:43:07;;;;;;;;;;;;;;;9.18;100.00;100698.34;5034163;28;19921;-70
2023/02/24 07:45:33;;;;;;;;;;;;;;;9.37;99.42;100691.44;5052003;28;20055;-72
2023/02/24 07:47:59;;;;;;;;;;;;;;;9.48;98.44;100686.75;5051976;28;19912;-70
2023/02/24 07:50:27;;;;;;;;;;;;;;;9.43;98.97;100686.53;5033165;28;19963;-69
2023/02/24 07:52:52;;;;;;;;;;;;;;;9.53;98.08;100681.00;5052055;28;19935;-69
2023/02/24 07:55:17;;;;;;;;;;;;;;;9.67;98.00;100675.56;5051690;28;20395;-69
2023/02/24 07:57:47;;;;;;;;;;;;;;;9.74;98.41;100677.59;5051997;28;19913;-69
2023/02/24 08:00:18;;;;;;;;;;;;;;;9.54;99.45;100669.00;5051750;28;19974;-69
2023/02/24 08:02:47;;;;;;;;;;;;;;;9.60;98.80;100670.97;5051706;28;20003;-75
2023/02/24 08:05:13;;;;;;;;;;;;;;;9.76;97.91;100655.34;5051887;28;19923;-74
2023/02/24 08:07:39;;;;;;;;;;;;;;;9.95;97.03;100664.75;5051358;28;20015;-72
2023/02/24 08:10:22;;;;;;;;;;;;;;;9.98;96.15;100667.47;5051776;28;19913;-71
2023/02/24 08:12:51;;;;;;;;;;;;;;;9.99;95.93;100665.78;5051612;28;19917;-74
2023/02/24 08:15:17;;;;;;;;;;;;;;;10.01;95.26;100666.72;5051325;28;19924;-70
2023/02/24 08:17:43;;;;;;;;;;;;;;;10.10;96.21;100673.97;5051160;28;19979;-76
2023/02/24 08:22:45;;;;;;;;;;;;;;;9.94;97.85;100675.00;5051579;28;19920;-71
2023/02/24 08:25:17;;;;;;;;;;;;;;;10.14;97.24;100674.16;5051522;28;19917;-71
2023/02/24 08:27:43;;;;;;;;;;;;;;;10.31;96.43;100672.28;5051409;28;19913;-71
2023/02/24 08:30:20;;;;;;;;;;;;;;;10.45;94.89;100666.84;5033379;28;19931;-74
2023/02/24 08:32:45;;;;;;;;;;;;;;;10.57;93.74;100676.78;5051607;28;19912;-72
2023/02/24 08:35:18;;;;;;;;;;;;;;;10.67;95.59;100669.44;5051022;28;20298;-71
2023/02/24 08:37:48;;;;;;;;;;;;;;;10.61;92.57;100665.75;5051425;28;19920;-77
2023/02/24 08:46:17;;;;;;;;;;;;;;;10.30;92.69;100649.84;5027901;28;20477;-76
2023/02/24 08:48:56;;;;;;;;;;;;;;;10.48;90.89;100651.44;5028760;28;20008;-71
2023/02/24 08:51:21;;;;;;;;;;;;;;;10.27;91.44;100646.28;5028497;28;19917;-70
2023/02/24 08:53:47;;;;;;;;;;;;;;;10.39;91.97;100644.22;5028487;28;19940;-73
2023/02/24 08:56:22;;;;;;;;;;;;;;;10.44;93.78;100641.84;5028555;28;20012;-70
2023/02/24 08:58:48;;;;;;;;;;;;;;;10.50;92.00;100634.34;5028623;28;20017;-70
2023/02/24 09:01:18;;;;;;;;;;;;;;;10.61;92.01;100634.78;5028603;28;19917;-75
2023/02/24 09:03:45;;;;;;;;;;;;;;;10.60;89.34;100638.16;5028234;28;19924;-70
2023/02/24 09:06:10;;;;;;;;;;;;;;;10.38;89.68;100637.31;5028373;28;19921;-71
2023/02/24 09:08:37;;;;;;;;;;;;;;;10.51;88.33;100634.38;5028409;28;19956;-73
2023/02/24 09:11:13;;;;;;;;;;;;;;;10.53;87.90;100631.91;5028619;28;19917;-73
2023/02/24 09:13:53;;;;;;;;;;;;;;;10.41;88.52;100629.69;5028519;28;19928;-73
2023/02/24 09:16:19;;;;;;;;;;;;;;;10.51;89.66;100626.66;5027704;28;19925;-71
2023/02/24 09:19:13;;;;;;;;;;;;;;;10.48;88.11;100634.28;5028322;28;19948;-72
2023/02/24 09:24:25;;;;;;;;;;;;;;;10.39;90.16;100625.28;5050969;28;20291;-69
2023/02/24 09:26:57;;;;;;;;;;;;;;;10.29;90.59;100629.16;5051070;28;20062;-70
2023/02/24 09:29:48;;;;;;;;;;;;;;;10.40;89.99;100625.34;5031576;28;19924;-76
2023/02/24 09:32:13;;;;;;;;;;;;;;;10.65;88.17;100621.16;5050621;28;19923;-73
2023/02/24 09:34:43;;;;;;;;;;;;;;;10.56;87.92;100623.38;5050516;28;19916;-69
2023/02/24 09:37:23;;;;;;;;;;;;;;;10.47;88.97;100624.78;5050731;28;19916;-70
2023/02/24 09:44:51;;;;;;;;;;;;;;;10.89;86.03;100610.00;5050710;28;19923;-69
2023/02/24 09:47:38;;;;;;;;;;;;;;;10.99;87.06;100617.28;5053583;28;19933;-73
2023/02/24 09:50:21;;;;;;;;;;;;;;;11.00;86.53;100608.69;5053968;28;19916;-71
2023/02/24 09:52:51;;;;;;;;;;;;;;;10.96;87.95;100604.25;5019015;28;19917;-71
2023/02/24 09:55:26;;;;;;;;;;;;;;;10.89;87.23;100598.00;5054241;28;20011;-71
2023/02/24 10:00:47;;;;;;;;;;;;;;;10.88;88.04;100587.56;5054194;28;19917;-71
2023/02/24 10:03:19;;;;;;;;;;;;;;;10.97;88.43;100586.22;5054083;28;19925;-71
2023/02/24 10:05:57;;;;;;;;;;;;;;;11.09;86.47;100583.22;5054103;28;20063;-74
2023/02/24 10:08:29;;;;;;;;;;;;;;;11.15;85.78;100583.44;5054121;28;19917;-70
2023/02/24 10:11:08;;;;;;;;;;;;;;;11.26;84.81;100580.38;5053856;28;19917;-71
2023/02/24 10:13:41;;;;;;;;;;;;;;;11.28;84.61;100579.59;5054014;28;20000;-71
2023/02/24 10:16:09;;;;;;;;;;;;;;;11.34;84.61;100568.59;5053659;28;19978;-73
2023/02/24 10:18:47;;;;;;;;;;;;;;;11.55;83.45;100563.31;5053818;28;19950;-74
2023/02/24 10:21:47;;;;;;;;;;;;;;;11.53;84.00;100556.31;5053986;28;19924;-74
2023/02/24 10:24:21;;;;;;;;;;;;;;;11.43;86.08;100550.81;5051961;28;19916;-74
2023/02/24 10:27:13;;;;;;;;;;;;;;;11.54;84.02;100550.31;5052726;28;19981;-70
2023/02/24 10:29:49;;;;;;;;;;;;;;;11.57;85.30;100538.34;5051003;28;19925;-73
2023/02/24 10:32:30;;;;;;;;;;;;;;;11.40;84.90;100526.56;5052837;28;19921;-71
2023/02/24 10:34:55;;;;;;;;;;;;;;;11.42;85.38;100523.19;5053830;28;19922;-74
2023/02/24 10:37:22;;;;;;;;;;;;;;;11.47;85.21;100520.78;5035100;28;20059;-73
2023/02/24 10:39:48;;;;;;;;;;;;;;;11.64;84.69;100498.97;5053188;28;19917;-76
2023/02/24 10:42:30;;;;;;;;;;;;;;;11.94;84.01;100502.50;5053262;28;20011;-69
2023/02/24 10:45:16;;;;;;;;;;;;;;;12.28;82.39;100495.81;5052571;28;20629;-70
2023/02/24 10:47:43;;;;;;;;;;;;;;;12.46;82.15;100493.78;4971832;28;19922;-73
2023/02/24 10:50:42;;;;;;;;;;;;;;;12.64;81.36;100486.50;4971932;28;20412;-71
2023/02/24 10:53:25;;;;;;;;;;;;;;;12.93;80.52;100484.72;4933388;29;19923;-75
2023/02/24 10:55:53;;;;;;;;;;;;;;;13.04;79.92;100475.50;4933296;29;20294;-70
2023/02/24 10:58:27;;;;;;;;;;;;;;;13.03;79.71;100471.16;4933051;29;19918;-70
2023/02/24 11:03:35;;;;;;;;;;;;;;;12.66;81.15;100461.50;4933171;29;20510;-69
2023/02/24 11:11:18;;;;;;;;;;;;;;;12.50;82.16;100453.31;4933135;29;19923;-73
2023/02/24 11:19:26;;;;;;;;;;;;;;;12.71;82.69;100442.69;4933169;29;19949;-76
2023/02/24 11:21:54;;;;;;;;;;;;;;;12.92;82.52;100436.31;4931713;29;19919;-70
2023/02/24 11:24:19;;;;;;;;;;;;;;;13.02;81.70;100427.06;4949686;28;20419;-73
2023/02/24 11:26:45;;;;;;;;;;;;;;;13.07;81.47;100425.47;4987173;28;19925;-73
2023/02/24 11:29:22;;;;;;;;;;;;;;;13.07;80.89;100418.59;5001768;28;20011;-75
2023/02/24 11:31:48;;;;;;;;;;;;;;;13.23;80.82;100414.69;5032209;28;19917;-74
2023/02/24 11:34:19;;;;;;;;;;;;;;;13.37;81.46;100409.88;5032209;28;19917;-73
2023/02/24 11:36:44;;;;;;;;;;;;;;;13.56;80.99;100399.94;5031983;28;19925;-71
2023/02/24 11:39:12;;;;;;;;;;;;;;;13.26;82.38;100395.72;5032058;28;19970;-70
2023/02/24 11:41:41;;;;;;;;;;;;;;;13.55;81.76;100390.41;5032178;28;19925;-70
2023/02/24 11:44:25;;;;;;;;;;;;;;;13.78;81.00;100383.13;5037147;28;19964;-70
2023/02/24 11:46:53;;;;;;;;;;;;;;;13.83;82.37;100383.25;5051344;28;20402;-74
2023/02/24 11:49:36;;;;;;;;;;;;;;;13.93;81.28;100376.53;5050831;28;19917;-73
2023/02/24 11:52:03;;;;;;;;;;;;;;;13.95;84.03;100372.25;5051255;28;19939;-69
2023/02/24 11:54:35;;;;;;;;;;;;;;;13.82;84.90;100363.31;5050872;28;19920;-75
2023/02/24 11:57:02;;;;;;;;;;;;;;;13.93;83.51;100359.22;5051706;28;19951;-72
2023/02/24 11:59:28;;;;;;;;;;;;;;;13.96;83.30;100358.44;5049502;28;19912;-72
2023/02/24 12:02:12;;;;;;;;;;;;;;;14.04;82.95;100356.88;5031107;28;19917;-72
2023/02/24 12:04:57;;;;;;;;;;;;;;;14.01;84.71;100349.03;5048362;28;19975;-70
2023/02/24 12:07:26;;;;;;;;;;;;;;;13.89;86.15;100347.03;5045699;28;19928;-70
2023/02/24 12:09:57;;;;;;;;;;;;;;;13.91;84.44;100335.00;5048590;28;19916;-73
2023/02/24 12:12:27;;;;;;;;;;;;;;;14.10;83.80;100341.44;5048831;28;19921;-71
2023/02/24 12:14:55;;;;;;;;;;;;;;;14.02;84.11;100335.22;5048834;28;19920;-68
2023/02/24 12:17:27;;;;;;;;;;;;;;;14.07;85.12;100337.06;5041155;28;19995;-73
2023/02/24 12:19:53;;;;;;;;;;;;;;;14.13;85.30;100336.31;5031790;28;19972;-71
2023/02/24 12:22:20;;;;;;;;;;;;;;;14.13;85.34;100335.41;5050060;28;19967;-72
2023/02/24 12:24:48;;;;;;;;;;;;;;;14.02;85.97;100322.25;5050509;28;20379;-72
2023/02/24 12:27:17;;;;;;;;;;;;;;;13.88;86.13;100317.63;5039920;28;19921;-72
2023/02/24 12:30:05;;;;;;;;;;;;;;;13.97;85.60;100314.34;5047040;28;19921;-72
2023/02/24 12:32:50;;;;;;;;;;;;;;;14.30;85.33;100296.81;5032001;28;19966;-71
2023/02/24 12:35:43;;;;;;;;;;;;;;;14.56;85.39;100300.75;5046086;28;19989;-71
2023/02/24 12:38:27;;;;;;;;;;;;;;;14.85;83.95;100296.94;5030090;28;20080;-70
2023/02/24 12:41:11;;;;;;;;;;;;;;;14.51;83.62;100299.78;5038692;28;20032;-73
2023/02/24 12:43:54;;;;;;;;;;;;;;;14.38;84.41;100292.63;5047560;28;19921;-73
2023/02/24 12:46:30;;;;;;;;;;;;;;;14.13;84.55;100293.88;5038515;28;20304;-69
2023/02/24 12:49:11;;;;;;;;;;;;;;;13.95;84.77;100299.59;5035311;28;20350;-74
2023/02/24 12:51:48;;;;;;;;;;;;;;;13.99;84.07;100294.47;5040745;28;19924;-72
2023/02/24 12:54:27;;;;;;;;;;;;;;;13.93;84.64;100286.56;5029343;28;19925;-73
2023/02/24 12:57:08;;;;;;;;;;;;;;;14.19;84.65;100283.63;5014584;28;20315;-74
2023/02/24 12:59:37;;;;;;;;;;;;;;;14.27;83.89;100274.25;5029762;28;19921;-75
2023/02/24 13:02:12;;;;;;;;;;;;;;;14.14;84.69;100270.53;5045679;28;19928;-72
2023/02/24 13:04:50;;;;;;;;;;;;;;;13.92;85.42;100282.25;5049622;28;19920;-75
2023/02/24 13:07:35;;;;;;;;;;;;;;;13.80;86.30;100279.41;5041478;28;19999;-72
2023/02/24 13:10:04;;;;;;;;;;;;;;;13.94;87.18;100270.16;5033315;28;19986;-73
2023/02/24 13:12:40;;;;;;;;;;;;;;;14.04;86.62;100255.63;5037363;28;19971;-73
2023/02/24 13:15:19;;;;;;;;;;;;;;;14.08;85.55;100250.53;5046664;28;19960;-69
2023/02/24 13:17:49;;;;;;;;;;;;;;;13.87;86.12;100253.59;5045466;28;19932;-70
2023/02/24 13:20:27;;;;;;;;;;;;;;;13.87;87.50;100245.81;5037220;28;20367;-72
2023/02/24 13:22:52;;;;;;;;;;;;;;;13.75;87.10;100255.94;5032588;28;19967;-70
2023/02/24 13:25:20;;;;;;;;;;;;;;;13.75;87.46;100256.81;5035209;28;20373;-73
2023/02/24 13:27:53;;;;;;;;;;;;;;;13.97;86.12;100251.16;5033408;28;19928;-69
2023/02/24 13:30:27;;;;;;;;;;;;;;;14.20;84.78;100246.44;5033346;28;19982;-70